sensor_id;sensor_type;location;lat;lon;timestamp;P1;durP1;ratioP1;P2;durP2;ratioP2
55007;SDS011;40902;45.116;21.296;2023-05-20T00:01:22;15.55;;;11.93;;
55007;SDS011;40902;45.116;21.296;2023-05-20T00:03:49;15.38;;;12.02;;
55007;SDS011;40902;45.116;21.296;2023-05-20T00:06:15;15.52;;;10.98;;
55007;SDS011;40902;45.116;21.296;2023-05-20T00:08:41;15.70;;;11.60;;
55007;SDS011;40902;45.116;21.296;2023-05-20T00:11:06;14.98;;;12.20;;
55007;SDS011;40902;45.116;21.296;2023-05-20T00:13:32;15.38;;;11.85;;
55007;SDS011;40902;45.116;21.296;2023-05-20T00:16:00;15.25;;;11.77;;
55007;SDS011;40902;45.116;21.296;2023-05-20T00:18:25;18.02;;;11.80;;
55007;SDS011;40902;45.116;21.296;2023-05-20T00:20:51;14.68;;;11.93;;
55007;SDS011;40902;45.116;21.296;2023-05-20T00:23:18;18.17;;;12.38;;
55007;SDS011;40902;45.116;21.296;2023-05-20T00:25:44;17.38;;;11.82;;
55007;SDS011;40902;45.116;21.296;2023-05-20T00:28:10;17.95;;;12.57;;
55007;SDS011;40902;45.116;21.296;2023-05-20T00:30:39;16.00;;;12.50;;
55007;SDS011;40902;45.116;21.296;2023-05-20T00:33:06;15.05;;;12.27;;
55007;SDS011;40902;45.116;21.296;2023-05-20T00:35:32;15.80;;;12.40;;
55007;SDS011;40902;45.116;21.296;2023-05-20T00:37:58;16.40;;;13.45;;
55007;SDS011;40902;45.116;21.296;2023-05-20T00:40:23;15.88;;;12.82;;
55007;SDS011;40902;45.116;21.296;2023-05-20T00:42:49;15.23;;;12.70;;
55007;SDS011;40902;45.116;21.296;2023-05-20T00:45:15;16.48;;;12.82;;
55007;SDS011;40902;45.116;21.296;2023-05-20T00:47:41;16.02;;;12.90;;
55007;SDS011;40902;45.116;21.296;2023-05-20T00:50:08;15.45;;;12.45;;
55007;SDS011;40902;45.116;21.296;2023-05-20T00:52:34;19.40;;;13.10;;
55007;SDS011;40902;45.116;21.296;2023-05-20T00:55:01;15.68;;;12.57;;
55007;SDS011;40902;45.116;21.296;2023-05-20T00:57:27;15.10;;;13.25;;
55007;SDS011;40902;45.116;21.296;2023-05-20T00:59:53;16.30;;;12.40;;
55007;SDS011;40902;45.116;21.296;2023-05-20T01:02:19;16.50;;;12.88;;
55007;SDS011;40902;45.116;21.296;2023-05-20T01:04:45;15.90;;;12.35;;
55007;SDS011;40902;45.116;21.296;2023-05-20T01:07:11;17.42;;;12.48;;
55007;SDS011;40902;45.116;21.296;2023-05-20T01:09:39;16.13;;;12.40;;
55007;SDS011;40902;45.116;21.296;2023-05-20T01:12:11;21.50;;;12.55;;
55007;SDS011;40902;45.116;21.296;2023-05-20T01:14:44;16.83;;;12.25;;
55007;SDS011;40902;45.116;21.296;2023-05-20T01:17:13;14.20;;;11.68;;
55007;SDS011;40902;45.116;21.296;2023-05-20T01:19:42;16.40;;;11.43;;
55007;SDS011;40902;45.116;21.296;2023-05-20T01:22:12;17.08;;;12.27;;
55007;SDS011;40902;45.116;21.296;2023-05-20T01:24:43;16.45;;;11.68;;
55007;SDS011;40902;45.116;21.296;2023-05-20T01:27:12;14.55;;;11.48;;
55007;SDS011;40902;45.116;21.296;2023-05-20T01:29:38;16.08;;;13.18;;
55007;SDS011;40902;45.116;21.296;2023-05-20T01:32:21;17.50;;;13.35;;
55007;SDS011;40902;45.116;21.296;2023-05-20T01:34:54;19.15;;;12.95;;
55007;SDS011;40902;45.116;21.296;2023-05-20T01:37:20;16.25;;;12.15;;
55007;SDS011;40902;45.116;21.296;2023-05-20T01:39:48;16.55;;;12.57;;
55007;SDS011;40902;45.116;21.296;2023-05-20T01:42:14;17.02;;;12.27;;
55007;SDS011;40902;45.116;21.296;2023-05-20T01:44:41;16.98;;;11.93;;
55007;SDS011;40902;45.116;21.296;2023-05-20T01:47:07;15.13;;;11.82;;
55007;SDS011;40902;45.116;21.296;2023-05-20T01:49:33;16.02;;;12.73;;
55007;SDS011;40902;45.116;21.296;2023-05-20T01:51:59;15.57;;;12.02;;
55007;SDS011;40902;45.116;21.296;2023-05-20T01:54:24;16.30;;;12.27;;
55007;SDS011;40902;45.116;21.296;2023-05-20T01:56:50;20.08;;;13.13;;
55007;SDS011;40902;45.116;21.296;2023-05-20T01:59:17;16.70;;;12.63;;
55007;SDS011;40902;45.116;21.296;2023-05-20T02:01:42;17.98;;;12.27;;
55007;SDS011;40902;45.116;21.296;2023-05-20T02:04:08;24.23;;;14.35;;
55007;SDS011;40902;45.116;21.296;2023-05-20T02:06:34;18.70;;;13.10;;
55007;SDS011;40902;45.116;21.296;2023-05-20T02:09:00;15.75;;;12.65;;
55007;SDS011;40902;45.116;21.296;2023-05-20T02:11:26;16.45;;;12.73;;
55007;SDS011;40902;45.116;21.296;2023-05-20T02:13:52;17.83;;;12.93;;
55007;SDS011;40902;45.116;21.296;2023-05-20T02:16:18;15.88;;;13.23;;
55007;SDS011;40902;45.116;21.296;2023-05-20T02:18:43;15.07;;;13.20;;
55007;SDS011;40902;45.116;21.296;2023-05-20T02:21:09;17.27;;;11.98;;
55007;SDS011;40902;45.116;21.296;2023-05-20T02:23:35;16.90;;;12.90;;
55007;SDS011;40902;45.116;21.296;2023-05-20T02:26:00;16.73;;;12.27;;
55007;SDS011;40902;45.116;21.296;2023-05-20T02:28:26;15.90;;;12.60;;
55007;SDS011;40902;45.116;21.296;2023-05-20T02:30:52;17.52;;;13.18;;
55007;SDS011;40902;45.116;21.296;2023-05-20T02:33:18;18.83;;;13.23;;
55007;SDS011;40902;45.116;21.296;2023-05-20T02:35:44;18.08;;;12.50;;
55007;SDS011;40902;45.116;21.296;2023-05-20T02:38:12;18.63;;;12.65;;
55007;SDS011;40902;45.116;21.296;2023-05-20T02:40:38;16.52;;;12.32;;
55007;SDS011;40902;45.116;21.296;2023-05-20T02:43:04;20.55;;;13.43;;
55007;SDS011;40902;45.116;21.296;2023-05-20T02:45:30;18.17;;;12.90;;
55007;SDS011;40902;45.116;21.296;2023-05-20T02:47:56;17.73;;;13.82;;
55007;SDS011;40902;45.116;21.296;2023-05-20T02:50:22;16.30;;;12.55;;
55007;SDS011;40902;45.116;21.296;2023-05-20T02:52:49;18.05;;;13.52;;
55007;SDS011;40902;45.116;21.296;2023-05-20T02:55:15;19.30;;;13.65;;
55007;SDS011;40902;45.116;21.296;2023-05-20T02:57:41;17.35;;;12.75;;
55007;SDS011;40902;45.116;21.296;2023-05-20T03:00:07;16.83;;;13.50;;
55007;SDS011;40902;45.116;21.296;2023-05-20T03:02:37;18.23;;;12.85;;
55007;SDS011;40902;45.116;21.296;2023-05-20T03:05:03;17.83;;;13.50;;
55007;SDS011;40902;45.116;21.296;2023-05-20T03:07:30;17.52;;;13.48;;
55007;SDS011;40902;45.116;21.296;2023-05-20T03:10:00;17.60;;;13.10;;
55007;SDS011;40902;45.116;21.296;2023-05-20T03:12:27;16.38;;;12.38;;
55007;SDS011;40902;45.116;21.296;2023-05-20T03:14:54;15.90;;;12.75;;
55007;SDS011;40902;45.116;21.296;2023-05-20T03:17:22;16.70;;;12.73;;
55007;SDS011;40902;45.116;21.296;2023-05-20T03:19:48;16.25;;;13.25;;
55007;SDS011;40902;45.116;21.296;2023-05-20T03:22:14;16.52;;;12.20;;
55007;SDS011;40902;45.116;21.296;2023-05-20T03:24:40;17.35;;;12.38;;
55007;SDS011;40902;45.116;21.296;2023-05-20T03:27:08;18.33;;;11.57;;
55007;SDS011;40902;45.116;21.296;2023-05-20T03:29:34;15.43;;;11.98;;
55007;SDS011;40902;45.116;21.296;2023-05-20T03:32:00;14.25;;;11.32;;
55007;SDS011;40902;45.116;21.296;2023-05-20T03:34:26;18.65;;;12.38;;
55007;SDS011;40902;45.116;21.296;2023-05-20T03:36:54;18.88;;;11.73;;
55007;SDS011;40902;45.116;21.296;2023-05-20T03:39:21;19.52;;;12.25;;
55007;SDS011;40902;45.116;21.296;2023-05-20T03:41:47;15.80;;;11.30;;
55007;SDS011;40902;45.116;21.296;2023-05-20T03:44:13;16.42;;;12.40;;
55007;SDS011;40902;45.116;21.296;2023-05-20T03:46:39;14.68;;;11.88;;
55007;SDS011;40902;45.116;21.296;2023-05-20T03:49:05;18.83;;;11.48;;
55007;SDS011;40902;45.116;21.296;2023-05-20T03:51:31;15.63;;;11.25;;
55007;SDS011;40902;45.116;21.296;2023-05-20T03:53:57;14.70;;;11.68;;
55007;SDS011;40902;45.116;21.296;2023-05-20T03:56:23;16.30;;;12.20;;
55007;SDS011;40902;45.116;21.296;2023-05-20T03:58:50;20.00;;;11.77;;
55007;SDS011;40902;45.116;21.296;2023-05-20T04:01:16;14.73;;;11.10;;
55007;SDS011;40902;45.116;21.296;2023-05-20T04:03:42;17.38;;;11.95;;
55007;SDS011;40902;45.116;21.296;2023-05-20T04:06:08;15.77;;;11.00;;
55007;SDS011;40902;45.116;21.296;2023-05-20T04:08:34;15.32;;;11.90;;
55007;SDS011;40902;45.116;21.296;2023-05-20T04:11:01;16.05;;;12.23;;
55007;SDS011;40902;45.116;21.296;2023-05-20T04:13:27;18.83;;;12.25;;
55007;SDS011;40902;45.116;21.296;2023-05-20T04:15:53;18.10;;;13.68;;
55007;SDS011;40902;45.116;21.296;2023-05-20T04:18:19;14.85;;;12.25;;
55007;SDS011;40902;45.116;21.296;2023-05-20T04:20:45;16.67;;;11.40;;
55007;SDS011;40902;45.116;21.296;2023-05-20T04:23:11;17.15;;;12.30;;
55007;SDS011;40902;45.116;21.296;2023-05-20T04:25:37;14.80;;;11.57;;
55007;SDS011;40902;45.116;21.296;2023-05-20T04:28:06;15.57;;;11.93;;
55007;SDS011;40902;45.116;21.296;2023-05-20T04:30:34;18.58;;;11.70;;
55007;SDS011;40902;45.116;21.296;2023-05-20T04:33:00;20.60;;;12.20;;
55007;SDS011;40902;45.116;21.296;2023-05-20T04:35:30;16.60;;;11.75;;
55007;SDS011;40902;45.116;21.296;2023-05-20T04:37:56;14.25;;;11.88;;
55007;SDS011;40902;45.116;21.296;2023-05-20T04:40:22;17.33;;;12.02;;
55007;SDS011;40902;45.116;21.296;2023-05-20T04:42:48;14.10;;;10.60;;
55007;SDS011;40902;45.116;21.296;2023-05-20T04:45:15;14.52;;;11.18;;
55007;SDS011;40902;45.116;21.296;2023-05-20T04:47:41;14.88;;;10.88;;
55007;SDS011;40902;45.116;21.296;2023-05-20T04:50:08;16.23;;;11.15;;
55007;SDS011;40902;45.116;21.296;2023-05-20T04:52:35;13.82;;;10.80;;
55007;SDS011;40902;45.116;21.296;2023-05-20T04:55:01;19.90;;;11.50;;
55007;SDS011;40902;45.116;21.296;2023-05-20T04:57:27;14.57;;;10.85;;
55007;SDS011;40902;45.116;21.296;2023-05-20T04:59:53;15.57;;;10.95;;
55007;SDS011;40902;45.116;21.296;2023-05-20T05:02:23;15.18;;;11.48;;
55007;SDS011;40902;45.116;21.296;2023-05-20T05:04:49;17.00;;;11.52;;
55007;SDS011;40902;45.116;21.296;2023-05-20T05:07:15;15.25;;;10.98;;
55007;SDS011;40902;45.116;21.296;2023-05-20T05:09:40;13.23;;;10.70;;
55007;SDS011;40902;45.116;21.296;2023-05-20T05:12:06;18.90;;;10.93;;
55007;SDS011;40902;45.116;21.296;2023-05-20T05:14:32;15.25;;;11.07;;
55007;SDS011;40902;45.116;21.296;2023-05-20T05:16:57;13.27;;;10.85;;
55007;SDS011;40902;45.116;21.296;2023-05-20T05:19:23;14.70;;;10.40;;
55007;SDS011;40902;45.116;21.296;2023-05-20T05:21:49;17.00;;;10.15;;
55007;SDS011;40902;45.116;21.296;2023-05-20T05:24:15;14.63;;;9.98;;
55007;SDS011;40902;45.116;21.296;2023-05-20T05:26:41;14.65;;;9.10;;
55007;SDS011;40902;45.116;21.296;2023-05-20T05:29:06;12.63;;;8.63;;
55007;SDS011;40902;45.116;21.296;2023-05-20T05:31:32;10.18;;;8.48;;
55007;SDS011;40902;45.116;21.296;2023-05-20T05:33:58;12.70;;;9.50;;
55007;SDS011;40902;45.116;21.296;2023-05-20T05:36:24;15.05;;;9.30;;
55007;SDS011;40902;45.116;21.296;2023-05-20T05:38:52;11.35;;;8.73;;
55007;SDS011;40902;45.116;21.296;2023-05-20T05:41:18;12.13;;;8.82;;
55007;SDS011;40902;45.116;21.296;2023-05-20T05:43:44;12.63;;;9.30;;
55007;SDS011;40902;45.116;21.296;2023-05-20T05:46:09;10.27;;;8.32;;
55007;SDS011;40902;45.116;21.296;2023-05-20T05:48:35;9.60;;;8.15;;
55007;SDS011;40902;45.116;21.296;2023-05-20T05:51:01;10.85;;;8.68;;
55007;SDS011;40902;45.116;21.296;2023-05-20T05:53:26;13.13;;;9.05;;
55007;SDS011;40902;45.116;21.296;2023-05-20T05:55:52;10.82;;;8.60;;
55007;SDS011;40902;45.116;21.296;2023-05-20T05:58:18;10.63;;;8.65;;
55007;SDS011;40902;45.116;21.296;2023-05-20T06:00:44;14.02;;;8.93;;
55007;SDS011;40902;45.116;21.296;2023-05-20T06:03:09;12.68;;;8.95;;
55007;SDS011;40902;45.116;21.296;2023-05-20T06:05:35;10.85;;;8.70;;
55007;SDS011;40902;45.116;21.296;2023-05-20T06:08:01;12.98;;;8.52;;
55007;SDS011;40902;45.116;21.296;2023-05-20T06:10:27;12.65;;;9.05;;
55007;SDS011;40902;45.116;21.296;2023-05-20T06:12:52;12.45;;;8.88;;
55007;SDS011;40902;45.116;21.296;2023-05-20T06:15:18;11.43;;;8.77;;
55007;SDS011;40902;45.116;21.296;2023-05-20T06:17:44;12.45;;;8.48;;
55007;SDS011;40902;45.116;21.296;2023-05-20T06:20:10;11.35;;;8.02;;
55007;SDS011;40902;45.116;21.296;2023-05-20T06:22:36;9.65;;;8.05;;
55007;SDS011;40902;45.116;21.296;2023-05-20T06:25:01;10.88;;;8.45;;
55007;SDS011;40902;45.116;21.296;2023-05-20T06:27:27;11.63;;;9.20;;
55007;SDS011;40902;45.116;21.296;2023-05-20T06:29:53;11.55;;;8.55;;
55007;SDS011;40902;45.116;21.296;2023-05-20T06:32:19;14.15;;;9.23;;
55007;SDS011;40902;45.116;21.296;2023-05-20T06:34:44;13.45;;;9.20;;
55007;SDS011;40902;45.116;21.296;2023-05-20T06:37:10;13.27;;;8.98;;
55007;SDS011;40902;45.116;21.296;2023-05-20T06:39:36;11.65;;;8.70;;
55007;SDS011;40902;45.116;21.296;2023-05-20T06:42:02;12.02;;;8.20;;
55007;SDS011;40902;45.116;21.296;2023-05-20T06:44:28;13.80;;;8.60;;
55007;SDS011;40902;45.116;21.296;2023-05-20T06:46:54;11.60;;;8.30;;
55007;SDS011;40902;45.116;21.296;2023-05-20T06:49:20;14.48;;;9.07;;
55007;SDS011;40902;45.116;21.296;2023-05-20T06:51:46;12.50;;;9.02;;
55007;SDS011;40902;45.116;21.296;2023-05-20T06:54:12;11.35;;;8.18;;
55007;SDS011;40902;45.116;21.296;2023-05-20T06:56:38;12.88;;;8.80;;
55007;SDS011;40902;45.116;21.296;2023-05-20T06:59:03;9.73;;;8.05;;
55007;SDS011;40902;45.116;21.296;2023-05-20T07:01:29;12.15;;;8.80;;
55007;SDS011;40902;45.116;21.296;2023-05-20T07:03:55;12.07;;;8.85;;
55007;SDS011;40902;45.116;21.296;2023-05-20T07:06:21;15.68;;;8.57;;
55007;SDS011;40902;45.116;21.296;2023-05-20T07:08:47;11.93;;;9.02;;
55007;SDS011;40902;45.116;21.296;2023-05-20T07:11:12;10.93;;;8.30;;
55007;SDS011;40902;45.116;21.296;2023-05-20T07:13:38;14.35;;;8.52;;
55007;SDS011;40902;45.116;21.296;2023-05-20T07:16:04;10.32;;;8.05;;
55007;SDS011;40902;45.116;21.296;2023-05-20T07:18:29;11.60;;;8.43;;
55007;SDS011;40902;45.116;21.296;2023-05-20T07:20:55;11.65;;;8.52;;
55007;SDS011;40902;45.116;21.296;2023-05-20T07:23:22;11.40;;;8.75;;
55007;SDS011;40902;45.116;21.296;2023-05-20T07:25:48;11.77;;;8.93;;
55007;SDS011;40902;45.116;21.296;2023-05-20T07:28:16;11.35;;;8.65;;
55007;SDS011;40902;45.116;21.296;2023-05-20T07:30:43;10.00;;;8.40;;
55007;SDS011;40902;45.116;21.296;2023-05-20T07:33:14;12.07;;;7.85;;
55007;SDS011;40902;45.116;21.296;2023-05-20T07:35:41;10.73;;;7.97;;
55007;SDS011;40902;45.116;21.296;2023-05-20T07:38:07;12.02;;;8.70;;
55007;SDS011;40902;45.116;21.296;2023-05-20T07:40:32;11.65;;;8.25;;
55007;SDS011;40902;45.116;21.296;2023-05-20T07:43:00;11.60;;;8.68;;
55007;SDS011;40902;45.116;21.296;2023-05-20T07:45:26;14.18;;;9.05;;
55007;SDS011;40902;45.116;21.296;2023-05-20T07:47:52;10.73;;;8.77;;
55007;SDS011;40902;45.116;21.296;2023-05-20T07:50:18;10.73;;;8.30;;
55007;SDS011;40902;45.116;21.296;2023-05-20T07:52:43;11.40;;;9.30;;
55007;SDS011;40902;45.116;21.296;2023-05-20T07:55:09;13.35;;;8.77;;
55007;SDS011;40902;45.116;21.296;2023-05-20T07:57:35;13.20;;;8.85;;
55007;SDS011;40902;45.116;21.296;2023-05-20T08:00:00;14.05;;;8.90;;
55007;SDS011;40902;45.116;21.296;2023-05-20T08:02:26;9.88;;;8.32;;
55007;SDS011;40902;45.116;21.296;2023-05-20T08:04:52;12.60;;;8.40;;
55007;SDS011;40902;45.116;21.296;2023-05-20T08:07:18;11.77;;;9.00;;
55007;SDS011;40902;45.116;21.296;2023-05-20T08:09:44;13.75;;;9.30;;
55007;SDS011;40902;45.116;21.296;2023-05-20T08:12:10;14.07;;;9.18;;
55007;SDS011;40902;45.116;21.296;2023-05-20T08:14:35;14.48;;;8.70;;
55007;SDS011;40902;45.116;21.296;2023-05-20T08:17:01;11.32;;;8.73;;
55007;SDS011;40902;45.116;21.296;2023-05-20T08:19:27;12.63;;;8.57;;
55007;SDS011;40902;45.116;21.296;2023-05-20T08:21:52;9.30;;;7.75;;
55007;SDS011;40902;45.116;21.296;2023-05-20T08:24:18;9.68;;;8.20;;
55007;SDS011;40902;45.116;21.296;2023-05-20T08:26:44;11.38;;;8.50;;
55007;SDS011;40902;45.116;21.296;2023-05-20T08:29:09;11.35;;;7.45;;
55007;SDS011;40902;45.116;21.296;2023-05-20T08:31:35;10.65;;;8.25;;
55007;SDS011;40902;45.116;21.296;2023-05-20T08:34:01;12.88;;;8.75;;
55007;SDS011;40902;45.116;21.296;2023-05-20T08:36:27;10.95;;;7.97;;
55007;SDS011;40902;45.116;21.296;2023-05-20T08:38:52;9.82;;;7.55;;
55007;SDS011;40902;45.116;21.296;2023-05-20T08:41:19;9.93;;;7.53;;
55007;SDS011;40902;45.116;21.296;2023-05-20T08:43:46;8.55;;;7.18;;
55007;SDS011;40902;45.116;21.296;2023-05-20T08:46:13;9.80;;;6.85;;
55007;SDS011;40902;45.116;21.296;2023-05-20T08:48:39;10.07;;;6.97;;
55007;SDS011;40902;45.116;21.296;2023-05-20T08:51:06;11.57;;;6.90;;
55007;SDS011;40902;45.116;21.296;2023-05-20T08:53:33;10.93;;;7.85;;
55007;SDS011;40902;45.116;21.296;2023-05-20T08:55:59;10.95;;;7.63;;
55007;SDS011;40902;45.116;21.296;2023-05-20T08:58:30;8.18;;;6.70;;
55007;SDS011;40902;45.116;21.296;2023-05-20T09:00:59;11.48;;;7.50;;
55007;SDS011;40902;45.116;21.296;2023-05-20T09:03:26;8.48;;;7.10;;
55007;SDS011;40902;45.116;21.296;2023-05-20T09:05:52;8.82;;;6.88;;
55007;SDS011;40902;45.116;21.296;2023-05-20T09:08:23;7.60;;;5.85;;
55007;SDS011;40902;45.116;21.296;2023-05-20T09:10:52;9.52;;;7.60;;
55007;SDS011;40902;45.116;21.296;2023-05-20T09:13:18;9.18;;;6.75;;
55007;SDS011;40902;45.116;21.296;2023-05-20T09:15:44;8.73;;;6.72;;
55007;SDS011;40902;45.116;21.296;2023-05-20T09:18:10;9.80;;;7.18;;
55007;SDS011;40902;45.116;21.296;2023-05-20T09:20:36;10.40;;;7.65;;
55007;SDS011;40902;45.116;21.296;2023-05-20T09:23:04;8.65;;;6.70;;
55007;SDS011;40902;45.116;21.296;2023-05-20T09:25:31;10.63;;;7.50;;
55007;SDS011;40902;45.116;21.296;2023-05-20T09:27:57;7.97;;;5.97;;
55007;SDS011;40902;45.116;21.296;2023-05-20T09:30:23;10.15;;;6.40;;
55007;SDS011;40902;45.116;21.296;2023-05-20T09:32:56;8.35;;;6.50;;
55007;SDS011;40902;45.116;21.296;2023-05-20T09:35:22;10.95;;;7.53;;
55007;SDS011;40902;45.116;21.296;2023-05-20T09:37:53;8.27;;;6.30;;
55007;SDS011;40902;45.116;21.296;2023-05-20T09:40:23;9.50;;;6.90;;
55007;SDS011;40902;45.116;21.296;2023-05-20T09:45:16;9.27;;;6.80;;
55007;SDS011;40902;45.116;21.296;2023-05-20T09:47:42;9.32;;;6.60;;
55007;SDS011;40902;45.116;21.296;2023-05-20T09:50:09;9.10;;;7.18;;
55007;SDS011;40902;45.116;21.296;2023-05-20T09:52:38;8.48;;;6.90;;
55007;SDS011;40902;45.116;21.296;2023-05-20T09:55:07;9.10;;;6.97;;
55007;SDS011;40902;45.116;21.296;2023-05-20T09:57:39;9.18;;;6.55;;
55007;SDS011;40902;45.116;21.296;2023-05-20T10:00:05;8.10;;;6.80;;
55007;SDS011;40902;45.116;21.296;2023-05-20T10:02:39;7.88;;;6.63;;
55007;SDS011;40902;45.116;21.296;2023-05-20T10:05:10;8.40;;;6.55;;
55007;SDS011;40902;45.116;21.296;2023-05-20T10:10:10;9.85;;;7.55;;
55007;SDS011;40902;45.116;21.296;2023-05-20T10:12:51;10.77;;;7.22;;
55007;SDS011;40902;45.116;21.296;2023-05-20T10:15:33;10.13;;;7.53;;
55007;SDS011;40902;45.116;21.296;2023-05-20T10:18:08;12.70;;;7.05;;
55007;SDS011;40902;45.116;21.296;2023-05-20T10:20:45;11.93;;;6.82;;
55007;SDS011;40902;45.116;21.296;2023-05-20T10:23:22;8.85;;;6.82;;
55007;SDS011;40902;45.116;21.296;2023-05-20T10:25:51;8.27;;;6.60;;
55007;SDS011;40902;45.116;21.296;2023-05-20T10:28:51;8.10;;;7.05;;
55007;SDS011;40902;45.116;21.296;2023-05-20T10:33:45;10.40;;;6.78;;
55007;SDS011;40902;45.116;21.296;2023-05-20T10:36:28;10.60;;;7.00;;
55007;SDS011;40902;45.116;21.296;2023-05-20T10:38:56;9.70;;;7.13;;
55007;SDS011;40902;45.116;21.296;2023-05-20T10:41:26;11.18;;;7.28;;
55007;SDS011;40902;45.116;21.296;2023-05-20T10:44:02;10.35;;;6.90;;
55007;SDS011;40902;45.116;21.296;2023-05-20T10:46:29;9.63;;;6.68;;
55007;SDS011;40902;45.116;21.296;2023-05-20T10:48:55;10.43;;;7.05;;
55007;SDS011;40902;45.116;21.296;2023-05-20T10:51:22;8.23;;;6.97;;
55007;SDS011;40902;45.116;21.296;2023-05-20T10:53:50;13.80;;;7.40;;
55007;SDS011;40902;45.116;21.296;2023-05-20T10:56:21;13.40;;;7.82;;
55007;SDS011;40902;45.116;21.296;2023-05-20T10:58:53;7.93;;;6.38;;
55007;SDS011;40902;45.116;21.296;2023-05-20T11:01:23;11.07;;;7.53;;
55007;SDS011;40902;45.116;21.296;2023-05-20T11:03:49;9.00;;;7.30;;
55007;SDS011;40902;45.116;21.296;2023-05-20T11:06:16;8.43;;;7.07;;
55007;SDS011;40902;45.116;21.296;2023-05-20T11:08:43;12.60;;;7.50;;
55007;SDS011;40902;45.116;21.296;2023-05-20T11:11:09;11.60;;;8.18;;
55007;SDS011;40902;45.116;21.296;2023-05-20T11:13:36;10.25;;;7.30;;
55007;SDS011;40902;45.116;21.296;2023-05-20T11:16:02;10.70;;;8.00;;
55007;SDS011;40902;45.116;21.296;2023-05-20T11:18:29;10.93;;;7.22;;
55007;SDS011;40902;45.116;21.296;2023-05-20T11:20:58;11.82;;;8.55;;
55007;SDS011;40902;45.116;21.296;2023-05-20T11:23:25;10.00;;;7.60;;
55007;SDS011;40902;45.116;21.296;2023-05-20T11:25:52;10.35;;;8.18;;
55007;SDS011;40902;45.116;21.296;2023-05-20T11:28:22;9.77;;;7.55;;
55007;SDS011;40902;45.116;21.296;2023-05-20T11:30:49;8.90;;;7.38;;
55007;SDS011;40902;45.116;21.296;2023-05-20T11:33:16;10.93;;;8.23;;
55007;SDS011;40902;45.116;21.296;2023-05-20T11:35:50;8.88;;;7.57;;
55007;SDS011;40902;45.116;21.296;2023-05-20T11:38:16;11.00;;;7.35;;
55007;SDS011;40902;45.116;21.296;2023-05-20T11:40:49;10.07;;;7.35;;
55007;SDS011;40902;45.116;21.296;2023-05-20T11:43:18;9.90;;;7.78;;
55007;SDS011;40902;45.116;21.296;2023-05-20T11:45:55;9.90;;;7.60;;
55007;SDS011;40902;45.116;21.296;2023-05-20T11:48:23;9.80;;;8.02;;
55007;SDS011;40902;45.116;21.296;2023-05-20T11:50:49;10.30;;;7.55;;
55007;SDS011;40902;45.116;21.296;2023-05-20T11:53:18;10.07;;;7.75;;
55007;SDS011;40902;45.116;21.296;2023-05-20T11:55:48;10.55;;;7.88;;
55007;SDS011;40902;45.116;21.296;2023-05-20T11:58:14;12.32;;;7.78;;
55007;SDS011;40902;45.116;21.296;2023-05-20T12:00:41;11.60;;;8.00;;
55007;SDS011;40902;45.116;21.296;2023-05-20T12:03:07;12.15;;;7.47;;
55007;SDS011;40902;45.116;21.296;2023-05-20T12:05:34;12.30;;;7.72;;
55007;SDS011;40902;45.116;21.296;2023-05-20T12:08:00;9.70;;;7.75;;
55007;SDS011;40902;45.116;21.296;2023-05-20T12:10:26;9.52;;;7.63;;
55007;SDS011;40902;45.116;21.296;2023-05-20T12:12:55;11.05;;;8.45;;
55007;SDS011;40902;45.116;21.296;2023-05-20T12:15:21;11.93;;;8.90;;
55007;SDS011;40902;45.116;21.296;2023-05-20T12:17:48;10.52;;;8.18;;
55007;SDS011;40902;45.116;21.296;2023-05-20T12:20:15;11.77;;;9.18;;
55007;SDS011;40902;45.116;21.296;2023-05-20T12:22:44;11.32;;;8.25;;
55007;SDS011;40902;45.116;21.296;2023-05-20T12:25:14;12.90;;;8.23;;
55007;SDS011;40902;45.116;21.296;2023-05-20T12:27:41;14.43;;;8.00;;
55007;SDS011;40902;45.116;21.296;2023-05-20T12:30:14;11.10;;;7.78;;
55007;SDS011;40902;45.116;21.296;2023-05-20T12:32:41;12.40;;;7.95;;
55007;SDS011;40902;45.116;21.296;2023-05-20T12:35:07;11.20;;;7.30;;
55007;SDS011;40902;45.116;21.296;2023-05-20T12:37:33;10.85;;;8.00;;
55007;SDS011;40902;45.116;21.296;2023-05-20T12:40:00;9.80;;;7.72;;
55007;SDS011;40902;45.116;21.296;2023-05-20T12:42:26;9.85;;;7.82;;
55007;SDS011;40902;45.116;21.296;2023-05-20T12:44:52;9.98;;;7.60;;
55007;SDS011;40902;45.116;21.296;2023-05-20T12:47:19;11.95;;;7.55;;
55007;SDS011;40902;45.116;21.296;2023-05-20T12:49:45;9.77;;;7.70;;
55007;SDS011;40902;45.116;21.296;2023-05-20T12:52:11;11.23;;;7.53;;
55007;SDS011;40902;45.116;21.296;2023-05-20T12:54:37;10.35;;;7.60;;
55007;SDS011;40902;45.116;21.296;2023-05-20T12:57:03;11.48;;;7.35;;
55007;SDS011;40902;45.116;21.296;2023-05-20T12:59:30;11.38;;;8.18;;
55007;SDS011;40902;45.116;21.296;2023-05-20T13:01:56;13.32;;;8.10;;
55007;SDS011;40902;45.116;21.296;2023-05-20T13:04:25;9.55;;;7.30;;
55007;SDS011;40902;45.116;21.296;2023-05-20T13:06:51;10.40;;;7.72;;
55007;SDS011;40902;45.116;21.296;2023-05-20T13:09:17;9.68;;;7.28;;
55007;SDS011;40902;45.116;21.296;2023-05-20T13:11:43;11.27;;;8.32;;
55007;SDS011;40902;45.116;21.296;2023-05-20T13:14:09;10.00;;;8.05;;
55007;SDS011;40902;45.116;21.296;2023-05-20T13:16:35;10.77;;;8.70;;
55007;SDS011;40902;45.116;21.296;2023-05-20T13:19:04;10.35;;;7.30;;
55007;SDS011;40902;45.116;21.296;2023-05-20T13:21:31;10.07;;;7.97;;
55007;SDS011;40902;45.116;21.296;2023-05-20T13:23:57;10.63;;;7.43;;
55007;SDS011;40902;45.116;21.296;2023-05-20T13:26:23;11.00;;;8.68;;
55007;SDS011;40902;45.116;21.296;2023-05-20T13:28:49;9.90;;;7.97;;
55007;SDS011;40902;45.116;21.296;2023-05-20T13:31:15;10.30;;;7.75;;
55007;SDS011;40902;45.116;21.296;2023-05-20T13:33:41;10.32;;;7.65;;
55007;SDS011;40902;45.116;21.296;2023-05-20T13:36:07;13.73;;;8.50;;
55007;SDS011;40902;45.116;21.296;2023-05-20T13:38:34;10.80;;;7.78;;
55007;SDS011;40902;45.116;21.296;2023-05-20T13:41:01;10.65;;;7.97;;
55007;SDS011;40902;45.116;21.296;2023-05-20T13:43:27;9.02;;;7.53;;
55007;SDS011;40902;45.116;21.296;2023-05-20T13:45:53;11.30;;;8.65;;
55007;SDS011;40902;45.116;21.296;2023-05-20T13:48:19;12.68;;;8.30;;
55007;SDS011;40902;45.116;21.296;2023-05-20T13:50:45;10.70;;;7.90;;
55007;SDS011;40902;45.116;21.296;2023-05-20T13:53:12;8.73;;;7.82;;
55007;SDS011;40902;45.116;21.296;2023-05-20T13:55:38;8.70;;;7.68;;
55007;SDS011;40902;45.116;21.296;2023-05-20T13:58:05;12.40;;;7.53;;
55007;SDS011;40902;45.116;21.296;2023-05-20T14:00:37;11.52;;;7.40;;
55007;SDS011;40902;45.116;21.296;2023-05-20T14:03:03;12.70;;;7.47;;
55007;SDS011;40902;45.116;21.296;2023-05-20T14:05:32;9.90;;;7.43;;
55007;SDS011;40902;45.116;21.296;2023-05-20T14:07:59;10.80;;;8.15;;
55007;SDS011;40902;45.116;21.296;2023-05-20T14:10:25;10.43;;;7.78;;
55007;SDS011;40902;45.116;21.296;2023-05-20T14:12:52;9.65;;;7.22;;
55007;SDS011;40902;45.116;21.296;2023-05-20T14:15:19;12.13;;;7.68;;
55007;SDS011;40902;45.116;21.296;2023-05-20T14:17:46;14.00;;;7.70;;
55007;SDS011;40902;45.116;21.296;2023-05-20T14:20:12;11.50;;;7.78;;
55007;SDS011;40902;45.116;21.296;2023-05-20T14:22:38;9.90;;;7.35;;
55007;SDS011;40902;45.116;21.296;2023-05-20T14:25:04;9.80;;;7.85;;